ACA850 CYEG-CYYC
Flight info
| Callsign | ACA850 |
|---|---|
| Flight time | 0h 32m |
| Altitude | 26000 |
| Route | OLIMI Q814 AMUNO/N0391F250 Q814 ADVOX ADVOX9 |
| Aircraft | A343/H-SDE2E3FGHIJ4J5M1RWXY/LB1D1 |
Departure
| Time | 2026-05-01 13:43 |
|---|---|
| Airport | Edmonton International Airport (CYEG) |
Arrival
| Time | 2026-05-01 14:16 |
|---|---|
| Airport | Calgary International Airport (CYYC) |
| Time | Latitude | Longitude | Altitude | Speed | Heading |
|---|---|---|---|---|---|
| 2026-05-01 13:22 | 53.30481 | -113.58271 | 2388 ft | 0 kts | 49° |
| 2026-05-01 13:31 | 53.30475 | -113.58282 | 2392 ft | 4 kts | 48° |
| 2026-05-01 13:31 | 53.30418 | -113.58376 | 2396 ft | 2 kts | 49° |
| 2026-05-01 13:32 | 53.30417 | -113.58379 | 2396 ft | 0 kts | 49° |
| 2026-05-01 13:35 | 53.30419 | -113.58366 | 2395 ft | 1 kts | 75° |
| 2026-05-01 13:36 | 53.30413 | -113.58350 | 2397 ft | 2 kts | 123° |
| 2026-05-01 13:36 | 53.30397 | -113.58327 | 2395 ft | 7 kts | 140° |
| 2026-05-01 13:36 | 53.30324 | -113.58289 | 2388 ft | 5 kts | 212° |
| 2026-05-01 13:37 | 53.30288 | -113.58347 | 2388 ft | 9 kts | 226° |
| 2026-05-01 13:37 | 53.30236 | -113.58411 | 2388 ft | 7 kts | 183° |
| 2026-05-01 13:37 | 53.30192 | -113.58368 | 2390 ft | 10 kts | 139° |
| 2026-05-01 13:37 | 53.30124 | -113.58254 | 2390 ft | 16 kts | 134° |
| 2026-05-01 13:38 | 53.29959 | -113.57978 | 2388 ft | 18 kts | 135° |
| 2026-05-01 13:38 | 53.29868 | -113.57827 | 2390 ft | 19 kts | 135° |
| 2026-05-01 13:38 | 53.29773 | -113.57669 | 2391 ft | 20 kts | 135° |
| 2026-05-01 13:39 | 53.29673 | -113.57500 | 2393 ft | 21 kts | 135° |
| 2026-05-01 13:39 | 53.29567 | -113.57325 | 2389 ft | 22 kts | 135° |
| 2026-05-01 13:39 | 53.29459 | -113.57144 | 2393 ft | 23 kts | 135° |
| 2026-05-01 13:39 | 53.29345 | -113.56954 | 2388 ft | 23 kts | 135° |
| 2026-05-01 13:40 | 53.29229 | -113.56758 | 2392 ft | 24 kts | 135° |
| 2026-05-01 13:40 | 53.29118 | -113.56572 | 2391 ft | 19 kts | 135° |
| 2026-05-01 13:40 | 53.29033 | -113.56428 | 2388 ft | 16 kts | 135° |
| 2026-05-01 13:40 | 53.28962 | -113.56311 | 2388 ft | 11 kts | 135° |
| 2026-05-01 13:41 | 53.28903 | -113.56244 | 2388 ft | 11 kts | 165° |
| 2026-05-01 13:41 | 53.28824 | -113.56240 | 2388 ft | 12 kts | 180° |
| 2026-05-01 13:41 | 53.28740 | -113.56263 | 2395 ft | 12 kts | 206° |
| 2026-05-01 13:41 | 53.28703 | -113.56339 | 2388 ft | 7 kts | 267° |
| 2026-05-01 13:42 | 53.28723 | -113.56390 | 2391 ft | 6 kts | 312° |
| 2026-05-01 13:42 | 53.28799 | -113.56515 | 2391 ft | 40 kts | 315° |
| 2026-05-01 13:42 | 53.29158 | -113.57115 | 2387 ft | 103 kts | 315° |
| 2026-05-01 13:42 | 53.29791 | -113.58173 | 2399 ft | 152 kts | 315° |
| 2026-05-01 13:43 | 53.30570 | -113.59442 | 2915 ft | 158 kts | 315° |
| 2026-05-01 13:43 | 53.31366 | -113.60777 | 3584 ft | 164 kts | 317° |
| 2026-05-01 13:43 | 53.32217 | -113.62233 | 4006 ft | 190 kts | 316° |
| 2026-05-01 13:43 | 53.33243 | -113.63981 | 4321 ft | 227 kts | 316° |
| 2026-05-01 13:44 | 53.34405 | -113.65880 | 5073 ft | 243 kts | 317° |
| 2026-05-01 13:44 | 53.35645 | -113.67894 | 6021 ft | 253 kts | 316° |
| 2026-05-01 13:44 | 53.36758 | -113.70229 | 6939 ft | 261 kts | 301° |
| 2026-05-01 13:44 | 53.37356 | -113.73107 | 7943 ft | 265 kts | 278° |
| 2026-05-01 13:45 | 53.37166 | -113.76183 | 8987 ft | 270 kts | 252° |
| 2026-05-01 13:45 | 53.36102 | -113.78783 | 10018 ft | 276 kts | 224° |
| 2026-05-01 13:45 | 53.34489 | -113.80599 | 10710 ft | 293 kts | 211° |
| 2026-05-01 13:45 | 53.32507 | -113.81897 | 11093 ft | 318 kts | 198° |
| 2026-05-01 13:46 | 53.30242 | -113.82469 | 11491 ft | 341 kts | 185° |
| 2026-05-01 13:46 | 53.27825 | -113.82154 | 12158 ft | 353 kts | 174° |
| 2026-05-01 13:46 | 53.25374 | -113.81829 | 12978 ft | 354 kts | 186° |
| 2026-05-01 13:46 | 53.22928 | -113.82344 | 13812 ft | 355 kts | 195° |
| 2026-05-01 13:47 | 53.20551 | -113.83483 | 14600 ft | 356 kts | 202° |
| 2026-05-01 13:47 | 53.19008 | -113.84405 | 15155 ft | 356 kts | 204° |
| 2026-05-01 13:47 | 53.15950 | -113.86447 | 16289 ft | 357 kts | 207° |
| 2026-05-01 13:47 | 53.14408 | -113.87542 | 16862 ft | 358 kts | 207° |
| 2026-05-01 13:48 | 53.11379 | -113.89745 | 17963 ft | 360 kts | 208° |
| 2026-05-01 13:48 | 53.09070 | -113.91433 | 18715 ft | 363 kts | 208° |
| 2026-05-01 13:48 | 53.07506 | -113.92574 | 19118 ft | 366 kts | 208° |
| 2026-05-01 13:48 | 53.05184 | -113.94256 | 19723 ft | 371 kts | 208° |
| 2026-05-01 13:49 | 53.02803 | -113.95967 | 20347 ft | 375 kts | 208° |
| 2026-05-01 13:49 | 53.00392 | -113.97690 | 20980 ft | 379 kts | 208° |
| 2026-05-01 13:49 | 52.97957 | -113.99422 | 21605 ft | 383 kts | 208° |
| 2026-05-01 13:49 | 52.95489 | -114.01174 | 22184 ft | 388 kts | 208° |
| 2026-05-01 13:50 | 52.92995 | -114.02941 | 22766 ft | 392 kts | 208° |
| 2026-05-01 13:50 | 52.90472 | -114.04726 | 23357 ft | 395 kts | 208° |
| 2026-05-01 13:50 | 52.87925 | -114.06527 | 23878 ft | 399 kts | 208° |
| 2026-05-01 13:50 | 52.85357 | -114.08340 | 24358 ft | 402 kts | 208° |
| 2026-05-01 13:51 | 52.82772 | -114.10164 | 24827 ft | 406 kts | 208° |
| 2026-05-01 13:51 | 52.80188 | -114.11973 | 25289 ft | 409 kts | 207° |
| 2026-05-01 13:51 | 52.77502 | -114.13610 | 25732 ft | 414 kts | 204° |
| 2026-05-01 13:51 | 52.74740 | -114.15092 | 25970 ft | 419 kts | 202° |
| 2026-05-01 13:52 | 52.71921 | -114.16531 | 26015 ft | 429 kts | 202° |
| 2026-05-01 13:52 | 52.69052 | -114.17989 | 26004 ft | 432 kts | 202° |
| 2026-05-01 13:52 | 52.66182 | -114.19468 | 26007 ft | 432 kts | 202° |
| 2026-05-01 13:52 | 52.63319 | -114.20970 | 26016 ft | 432 kts | 203° |
| 2026-05-01 13:53 | 52.60457 | -114.22494 | 26018 ft | 432 kts | 203° |
| 2026-05-01 13:53 | 52.54747 | -114.25571 | 26014 ft | 432 kts | 203° |
| 2026-05-01 13:53 | 52.51887 | -114.27117 | 26025 ft | 432 kts | 203° |
| 2026-05-01 13:54 | 52.49033 | -114.28658 | 26026 ft | 432 kts | 203° |
| 2026-05-01 13:54 | 52.46174 | -114.30198 | 26017 ft | 432 kts | 203° |
| 2026-05-01 13:54 | 52.43349 | -114.31718 | 26023 ft | 432 kts | 203° |
| 2026-05-01 13:54 | 52.40492 | -114.33251 | 26042 ft | 432 kts | 203° |
| 2026-05-01 13:55 | 52.37629 | -114.34786 | 26036 ft | 432 kts | 203° |
| 2026-05-01 13:55 | 52.34768 | -114.36317 | 26035 ft | 432 kts | 203° |
| 2026-05-01 13:55 | 52.31897 | -114.37850 | 26032 ft | 432 kts | 203° |
| 2026-05-01 13:55 | 52.29032 | -114.39378 | 26048 ft | 432 kts | 203° |
| 2026-05-01 13:56 | 52.26202 | -114.40885 | 26049 ft | 432 kts | 203° |
| 2026-05-01 13:56 | 52.23337 | -114.42409 | 26033 ft | 432 kts | 202° |
| 2026-05-01 13:56 | 52.20476 | -114.43928 | 26036 ft | 432 kts | 202° |
| 2026-05-01 13:56 | 52.17616 | -114.45445 | 26039 ft | 432 kts | 202° |
| 2026-05-01 13:57 | 52.14750 | -114.46964 | 26049 ft | 432 kts | 202° |
| 2026-05-01 13:57 | 52.11893 | -114.48477 | 26052 ft | 432 kts | 202° |
| 2026-05-01 13:57 | 52.09029 | -114.49991 | 26032 ft | 433 kts | 202° |
| 2026-05-01 13:57 | 52.06169 | -114.51502 | 26032 ft | 432 kts | 202° |
| 2026-05-01 13:58 | 52.03306 | -114.53004 | 26044 ft | 433 kts | 202° |
| 2026-05-01 13:58 | 52.00462 | -114.54482 | 26045 ft | 433 kts | 202° |
| 2026-05-01 13:58 | 51.97591 | -114.55978 | 26015 ft | 432 kts | 202° |
| 2026-05-01 13:58 | 51.94758 | -114.57455 | 25451 ft | 427 kts | 202° |
| 2026-05-01 13:59 | 51.91931 | -114.58926 | 24758 ft | 427 kts | 202° |
| 2026-05-01 13:59 | 51.89107 | -114.60396 | 24113 ft | 424 kts | 202° |
| 2026-05-01 13:59 | 51.86307 | -114.61856 | 23412 ft | 422 kts | 202° |
| 2026-05-01 13:59 | 51.83514 | -114.63312 | 22643 ft | 420 kts | 202° |
| 2026-05-01 14:00 | 51.80738 | -114.64759 | 22018 ft | 416 kts | 202° |
| 2026-05-01 14:00 | 51.78002 | -114.66186 | 21455 ft | 410 kts | 202° |
| 2026-05-01 14:00 | 51.75303 | -114.67592 | 20909 ft | 404 kts | 202° |
| 2026-05-01 14:00 | 51.72636 | -114.68943 | 20373 ft | 400 kts | 200° |
| 2026-05-01 14:01 | 51.69877 | -114.69567 | 19840 ft | 404 kts | 184° |
| 2026-05-01 14:01 | 51.67101 | -114.68769 | 19293 ft | 411 kts | 165° |
| 2026-05-01 14:01 | 51.64561 | -114.66595 | 18735 ft | 416 kts | 150° |
| 2026-05-01 14:01 | 51.62202 | -114.63913 | 18130 ft | 414 kts | 148° |
| 2026-05-01 14:02 | 51.59900 | -114.61249 | 17547 ft | 410 kts | 148° |
| 2026-05-01 14:02 | 51.57591 | -114.58613 | 16992 ft | 405 kts | 148° |
| 2026-05-01 14:02 | 51.55310 | -114.55967 | 16486 ft | 400 kts | 147° |
| 2026-05-01 14:02 | 51.53089 | -114.53323 | 15983 ft | 395 kts | 147° |
| 2026-05-01 14:03 | 51.50883 | -114.50711 | 15477 ft | 391 kts | 147° |
| 2026-05-01 14:03 | 51.48707 | -114.48145 | 14972 ft | 386 kts | 147° |
| 2026-05-01 14:03 | 51.46658 | -114.45338 | 14462 ft | 385 kts | 140° |
| 2026-05-01 14:03 | 51.44740 | -114.42359 | 13977 ft | 382 kts | 139° |
| 2026-05-01 14:04 | 51.42856 | -114.39388 | 13429 ft | 379 kts | 138° |
| 2026-05-01 14:04 | 51.40978 | -114.36432 | 12848 ft | 376 kts | 138° |
| 2026-05-01 14:04 | 51.39118 | -114.33517 | 12348 ft | 372 kts | 137° |
| 2026-05-01 14:04 | 51.37279 | -114.30639 | 11866 ft | 368 kts | 137° |
| 2026-05-01 14:05 | 51.35457 | -114.27796 | 11374 ft | 364 kts | 137° |
| 2026-05-01 14:05 | 51.33652 | -114.24983 | 10996 ft | 358 kts | 136° |
| 2026-05-01 14:05 | 51.31920 | -114.22286 | 10865 ft | 345 kts | 136° |
| 2026-05-01 14:05 | 51.30232 | -114.19661 | 10738 ft | 332 kts | 136° |
| 2026-05-01 14:06 | 51.28466 | -114.17399 | 10607 ft | 320 kts | 152° |
| 2026-05-01 14:06 | 51.26399 | -114.16391 | 10496 ft | 307 kts | 176° |
| 2026-05-01 14:06 | 51.24285 | -114.16278 | 10283 ft | 301 kts | 182° |
| 2026-05-01 14:06 | 51.22196 | -114.16302 | 9961 ft | 300 kts | 181° |
| 2026-05-01 14:07 | 51.20113 | -114.16326 | 9634 ft | 298 kts | 182° |
| 2026-05-01 14:07 | 51.18053 | -114.16336 | 9466 ft | 290 kts | 182° |
| 2026-05-01 14:07 | 51.16090 | -114.16343 | 9334 ft | 282 kts | 182° |
| 2026-05-01 14:08 | 51.12264 | -114.16355 | 9095 ft | 268 kts | 182° |
| 2026-05-01 14:08 | 51.10417 | -114.16356 | 8980 ft | 261 kts | 182° |
| 2026-05-01 14:08 | 51.08621 | -114.16354 | 8860 ft | 255 kts | 182° |
| 2026-05-01 14:08 | 51.06855 | -114.16352 | 8700 ft | 252 kts | 181° |
| 2026-05-01 14:09 | 51.05111 | -114.16352 | 8481 ft | 250 kts | 181° |
| 2026-05-01 14:09 | 51.03373 | -114.16349 | 8252 ft | 248 kts | 181° |
| 2026-05-01 14:09 | 51.01673 | -114.16343 | 7890 ft | 246 kts | 181° |
| 2026-05-01 14:09 | 50.99953 | -114.16340 | 7667 ft | 249 kts | 181° |
| 2026-05-01 14:10 | 50.98218 | -114.16355 | 7424 ft | 249 kts | 183° |
| 2026-05-01 14:10 | 50.96457 | -114.16311 | 6925 ft | 260 kts | 168° |
| 2026-05-01 14:10 | 50.94823 | -114.15093 | 6506 ft | 262 kts | 137° |
| 2026-05-01 14:10 | 50.93689 | -114.12933 | 6357 ft | 249 kts | 112° |
| 2026-05-01 14:11 | 50.93219 | -114.10371 | 6223 ft | 237 kts | 93° |
| 2026-05-01 14:11 | 50.94328 | -114.05858 | 6007 ft | 223 kts | 45° |
| 2026-05-01 14:11 | 50.95376 | -114.04042 | 5999 ft | 223 kts | 43° |
| 2026-05-01 14:12 | 50.96418 | -114.02295 | 5995 ft | 212 kts | 43° |
| 2026-05-01 14:12 | 50.97390 | -114.00663 | 6010 ft | 200 kts | 43° |
| 2026-05-01 14:12 | 50.98496 | -113.99437 | 6029 ft | 196 kts | 17° |
| 2026-05-01 14:12 | 50.99793 | -113.99004 | 5874 ft | 187 kts | 0° |
| 2026-05-01 14:13 | 51.01070 | -113.99061 | 5610 ft | 178 kts | 358° |
| 2026-05-01 14:13 | 51.01876 | -113.99047 | 5448 ft | 171 kts | 0° |
| 2026-05-01 14:13 | 51.03394 | -113.99028 | 5154 ft | 154 kts | 358° |
| 2026-05-01 14:13 | 51.04415 | -113.99027 | 4962 ft | 141 kts | 358° |
| 2026-05-01 14:14 | 51.05384 | -113.99026 | 4789 ft | 139 kts | 357° |
| 2026-05-01 14:14 | 51.06356 | -113.99027 | 4592 ft | 140 kts | 358° |
| 2026-05-01 14:14 | 51.07328 | -113.99042 | 4374 ft | 139 kts | 358° |
| 2026-05-01 14:14 | 51.08296 | -113.99053 | 4144 ft | 138 kts | 360° |
| 2026-05-01 14:15 | 51.09238 | -113.99061 | 3963 ft | 136 kts | 1° |
| 2026-05-01 14:15 | 51.10185 | -113.99056 | 3788 ft | 137 kts | 1° |
| 2026-05-01 14:15 | 51.11147 | -113.99042 | 3582 ft | 139 kts | 3° |
| 2026-05-01 14:15 | 51.11951 | -113.99035 | 3564 ft | 77 kts | 0° |
| 2026-05-01 14:16 | 51.12301 | -113.99044 | 3563 ft | 27 kts | 348° |
| 2026-05-01 14:16 | 51.12419 | -113.99150 | 3563 ft | 16 kts | 327° |
| 2026-05-01 14:16 | 51.12492 | -113.99221 | 3561 ft | 11 kts | 329° |
| 2026-05-01 14:16 | 51.12537 | -113.99263 | 3557 ft | 8 kts | 329° |
| 2026-05-01 14:17 | 51.12588 | -113.99315 | 3560 ft | 10 kts | 321° |
| 2026-05-01 14:17 | 51.12613 | -113.99416 | 3557 ft | 11 kts | 272° |
| 2026-05-01 14:17 | 51.12613 | -113.99529 | 3564 ft | 11 kts | 270° |
| 2026-05-01 14:17 | 51.12613 | -113.99656 | 3564 ft | 12 kts | 270° |
| 2026-05-01 14:18 | 51.12613 | -113.99800 | 3564 ft | 14 kts | 270° |
| 2026-05-01 14:18 | 51.12613 | -113.99944 | 3564 ft | 10 kts | 270° |
| 2026-05-01 14:18 | 51.12613 | -114.00030 | 3564 ft | 5 kts | 270° |
| 2026-05-01 14:18 | 51.12613 | -114.00068 | 3564 ft | 6 kts | 270° |
| 2026-05-01 14:19 | 51.12613 | -114.00187 | 3564 ft | 12 kts | 270° |
| 2026-05-01 14:19 | 51.12613 | -114.00337 | 3563 ft | 15 kts | 270° |
| 2026-05-01 14:19 | 51.12612 | -114.00503 | 3563 ft | 14 kts | 270° |
| 2026-05-01 14:19 | 51.12625 | -114.00625 | 3554 ft | 8 kts | 313° |
| 2026-05-01 14:20 | 51.12681 | -114.00642 | 3560 ft | 9 kts | 357° |
| 2026-05-01 14:20 | 51.12785 | -114.00634 | 3562 ft | 4 kts | 31° |
| 2026-05-01 14:20 | 51.12793 | -114.00603 | 3560 ft | 3 kts | 75° |
| 2026-05-01 14:21 | 51.12795 | -114.00561 | 3557 ft | 4 kts | 87° |
| 2026-05-01 14:21 | 51.12795 | -114.00524 | 3559 ft | 3 kts | 89° |
| 2026-05-01 14:21 | 51.12795 | -114.00511 | 3561 ft | 0 kts | 90° |